Terminal Aerodrome Forecast
Issued by NWS

Home | Current Version | Previous Version | Text Only | Print | Product List | Glossary On
Versions: 1 2 3 4 5 6 7 8 9 10 11 12 13 14 15 16 17 18 19 20 21 22 23 24 25 26 27 28 29 30 31 32 33 34 35 36
000
FTUS45 KBOU 181942 AAA
TAFBJC
TAF AMD
KBJC 181942Z 1820/1918 10008KT P6SM FEW100 SCT220
     FM190000 15008KT P6SM FEW100 SCT220
     FM190200 VRB04KT P6SM FEW220
     FM190800 25007KT P6SM SCT220
     FM191500 33007KT P6SM SCT220=

USA.gov is the U.S. government's official web portal to all federal, state and local government web resources and services.